createdAt,value
2023-01-19T00:02:37.034Z,80.18
2023-01-19T00:05:38.894Z,79.76
2023-01-19T00:08:40.861Z,80.85
2023-01-19T00:11:42.894Z,81.25
2023-01-19T00:14:44.834Z,76.91
2023-01-19T00:17:46.887Z,77.15
2023-01-19T00:20:48.910Z,78.36
2023-01-19T00:23:52.832Z,80.99
2023-01-19T00:26:54.862Z,82.94
2023-01-19T00:29:56.820Z,78.03
2023-01-19T00:32:59.121Z,81.00
2023-01-19T00:36:01.460Z,79.96
2023-01-19T00:39:03.381Z,84.31
2023-01-19T00:42:24.102Z,84.86
2023-01-19T00:45:26.263Z,81.73
2023-01-19T00:48:28.353Z,79.32
2023-01-19T00:51:30.507Z,83.09
2023-01-19T00:54:32.386Z,83.72
2023-01-19T00:57:34.306Z,77.39
2023-01-19T01:00:36.162Z,77.47
2023-01-19T01:03:38.219Z,81.24
2023-01-19T01:06:40.361Z,77.26
2023-01-19T01:09:42.295Z,81.87
2023-01-19T01:12:56.389Z,81.77
2023-01-19T01:15:59.409Z,82.18
2023-01-19T01:19:01.282Z,80.83
2023-01-19T01:22:03.332Z,77.55
2023-01-19T01:25:05.623Z,77.58
2023-01-19T01:28:08.752Z,78.79
2023-01-19T01:31:10.913Z,78.71
2023-01-19T01:34:12.874Z,80.82
2023-01-19T01:37:14.733Z,79.04
2023-01-19T01:40:17.555Z,79.82
2023-01-19T01:43:20.633Z,83.09
2023-01-19T01:46:22.532Z,83.71
2023-01-19T01:49:24.503Z,81.04
2023-01-19T01:52:26.618Z,80.27
2023-01-19T01:55:28.571Z,82.72
2023-01-19T01:58:30.606Z,83.91
2023-01-19T02:01:51.347Z,79.08
2023-01-19T02:04:54.557Z,79.86
2023-01-19T02:08:16.777Z,81.09
2023-01-19T02:11:37.076Z,80.59
2023-01-19T02:14:39.120Z,82.87
2023-01-19T02:17:41.041Z,80.59
2023-01-19T02:20:45.454Z,83.40
2023-01-19T02:23:51.223Z,82.86
2023-01-19T02:26:53.236Z,84.42
2023-01-19T02:29:55.169Z,81.22
2023-01-19T02:32:57.106Z,82.80
2023-01-19T02:35:59.193Z,81.25
2023-01-19T02:39:01.053Z,82.28
2023-01-19T02:42:04.301Z,84.47
2023-01-19T02:45:06.847Z,82.67
2023-01-19T02:48:08.739Z,85.28
2023-01-19T02:51:31.125Z,83.67
2023-01-19T02:54:37.382Z,82.56
2023-01-19T02:57:47.934Z,84.15
2023-01-19T03:00:55.510Z,79.03
2023-01-19T03:04:06.710Z,80.99
2023-01-19T03:07:13.668Z,80.52
2023-01-19T03:10:21.902Z,78.81
2023-01-19T03:13:42.605Z,80.86
2023-01-19T03:16:47.312Z,80.10
2023-01-19T03:19:49.757Z,80.40
2023-01-19T03:22:53.442Z,77.96
2023-01-19T03:25:55.343Z,78.31
2023-01-19T03:28:57.755Z,74.98
2023-01-19T03:32:00.001Z,78.98
2023-01-19T03:35:03.097Z,83.00
2023-01-19T03:38:06.258Z,83.08
2023-01-19T03:41:14.506Z,82.07
2023-01-19T03:44:16.745Z,84.53
2023-01-19T03:47:18.586Z,81.14
2023-01-19T03:50:30.564Z,78.08
2023-01-19T03:53:32.568Z,78.50
2023-01-19T03:56:34.537Z,81.17
2023-01-19T03:59:36.571Z,79.26
2023-01-19T04:02:38.517Z,82.64
2023-01-19T04:05:40.404Z,82.87
2023-01-19T04:08:42.425Z,81.80
2023-01-19T04:11:44.405Z,80.30
2023-01-19T04:14:46.571Z,77.77
2023-01-19T04:17:48.497Z,77.94
2023-01-19T04:20:50.525Z,76.43
2023-01-19T04:23:53.342Z,75.88
2023-01-19T04:26:55.242Z,77.19
2023-01-19T04:29:57.136Z,79.11
2023-01-19T04:32:59.759Z,79.34
2023-01-19T04:36:02.030Z,77.23
2023-01-19T04:39:05.032Z,79.31
2023-01-19T04:42:07.914Z,77.66
2023-01-19T04:45:10.023Z,78.86
2023-01-19T04:48:12.286Z,78.56
2023-01-19T04:51:14.517Z,76.04
2023-01-19T04:54:16.657Z,76.86
2023-01-19T04:57:18.972Z,79.05
2023-01-19T05:00:21.108Z,78.21
2023-01-19T05:03:24.960Z,77.19
2023-01-19T05:06:27.598Z,75.52
2023-01-19T05:09:29.630Z,79.97
2023-01-19T05:12:31.794Z,76.03
2023-01-19T05:15:33.832Z,77.85
2023-01-19T05:18:37.240Z,75.69
2023-01-19T05:21:39.163Z,75.45
2023-01-19T05:24:41.133Z,75.16
2023-01-19T05:27:43.344Z,74.73
2023-01-19T05:30:45.300Z,76.88
2023-01-19T05:33:48.359Z,74.61
2023-01-19T05:36:50.216Z,75.32
2023-01-19T05:39:52.397Z,75.35
2023-01-19T05:42:54.531Z,74.15
2023-01-19T05:45:57.483Z,72.83
2023-01-19T05:49:02.003Z,75.33
2023-01-19T05:52:03.898Z,74.57
2023-01-19T05:55:06.227Z,76.05
2023-01-19T05:58:08.299Z,73.69
2023-01-19T06:01:10.463Z,75.01
2023-01-19T06:04:12.474Z,74.21
2023-01-19T06:07:14.457Z,74.37
2023-01-19T06:10:16.567Z,72.77
2023-01-19T06:13:18.534Z,74.72
2023-01-19T06:16:20.521Z,72.29
2023-01-19T06:19:22.718Z,72.94
2023-01-19T06:22:25.306Z,72.02
2023-01-19T06:25:27.193Z,74.20
2023-01-19T06:28:29.209Z,72.78
2023-01-19T06:31:31.199Z,73.17
2023-01-19T06:34:33.115Z,74.65
2023-01-19T06:37:36.124Z,73.39
2023-01-19T06:40:38.006Z,74.98
2023-01-19T06:43:40.134Z,75.10
2023-01-19T06:46:42.165Z,73.53
2023-01-19T06:49:44.148Z,72.94
2023-01-19T06:52:46.341Z,72.50
2023-01-19T06:55:48.498Z,74.15
2023-01-19T06:58:54.346Z,74.34
2023-01-19T07:01:57.106Z,73.87
2023-01-19T07:04:59.051Z,73.90
2023-01-19T07:08:01.234Z,71.88
2023-01-19T07:11:26.263Z,72.71
2023-01-19T07:14:33.607Z,76.18
2023-01-19T07:17:35.735Z,75.52
2023-01-19T07:20:38.208Z,72.45
2023-01-19T07:23:40.087Z,71.73
2023-01-19T07:26:42.484Z,72.91
2023-01-19T07:29:44.608Z,73.00
2023-01-19T07:32:46.585Z,73.64
2023-01-19T07:35:49.082Z,71.02
2023-01-19T07:38:51.116Z,70.80
2023-01-19T07:41:53.013Z,73.61
2023-01-19T07:44:55.867Z,75.04
2023-01-19T07:48:00.117Z,74.91
2023-01-19T07:51:05.515Z,74.16
2023-01-19T07:54:08.684Z,73.95
2023-01-19T07:57:10.800Z,74.47
2023-01-19T08:00:14.559Z,72.36
2023-01-19T08:03:17.927Z,76.24
2023-01-19T08:06:24.055Z,71.93
2023-01-19T08:09:26.048Z,71.95
2023-01-19T08:12:28.113Z,72.44
2023-01-19T08:15:30.216Z,74.17
2023-01-19T08:18:32.201Z,75.57
2023-01-19T08:21:35.961Z,72.71
2023-01-19T08:24:37.907Z,75.80
2023-01-19T08:27:39.983Z,74.00
2023-01-19T08:30:43.938Z,74.77
2023-01-19T08:33:45.991Z,74.21
2023-01-19T08:36:48.246Z,74.80
2023-01-19T08:39:50.387Z,73.94
2023-01-19T08:42:52.275Z,72.55
2023-01-19T08:45:56.170Z,72.25
2023-01-19T08:48:58.636Z,71.15
2023-01-19T08:52:00.562Z,71.05
2023-01-19T08:55:02.602Z,72.51
2023-01-19T08:58:04.785Z,71.91
2023-01-19T09:01:08.279Z,73.95
2023-01-19T09:04:10.227Z,72.72
2023-01-19T09:07:12.668Z,76.55
2023-01-19T09:10:15.155Z,73.69
2023-01-19T09:13:18.655Z,74.05
2023-01-19T09:16:20.653Z,72.97
2023-01-19T09:19:22.610Z,72.74
2023-01-19T09:22:24.975Z,76.01
2023-01-19T09:25:27.154Z,76.34
2023-01-19T09:28:31.981Z,75.12
2023-01-19T09:31:34.181Z,77.78
2023-01-19T09:34:36.263Z,77.64
2023-01-19T09:37:38.576Z,76.16
2023-01-19T09:40:42.258Z,77.08
2023-01-19T09:43:47.863Z,72.90
2023-01-19T09:46:50.178Z,71.60
2023-01-19T09:50:12.554Z,72.96
2023-01-19T09:53:16.991Z,73.15
2023-01-19T09:56:19.652Z,76.13
2023-01-19T09:59:23.245Z,73.77
2023-01-19T10:02:25.556Z,71.25
2023-01-19T10:05:30.997Z,73.07
2023-01-19T10:08:44.740Z,74.20
2023-01-19T10:11:53.132Z,71.25
2023-01-19T10:15:02.011Z,69.81
2023-01-19T10:18:04.086Z,70.39
2023-01-19T10:21:12.315Z,69.21
2023-01-19T10:24:34.566Z,70.82
2023-01-19T10:27:38.403Z,69.75
2023-01-19T10:30:42.536Z,71.24
2023-01-19T10:33:44.546Z,69.00
2023-01-19T10:36:47.698Z,71.75
2023-01-19T10:39:53.236Z,71.42
2023-01-19T10:42:55.532Z,70.80
2023-01-19T10:45:57.409Z,71.35
2023-01-19T10:48:59.403Z,69.23
2023-01-19T10:52:01.402Z,69.51
2023-01-19T10:55:03.813Z,72.01
2023-01-19T10:58:06.427Z,70.06
2023-01-19T11:01:14.651Z,72.69
2023-01-19T11:04:21.597Z,72.13
2023-01-19T11:07:23.694Z,74.27
2023-01-19T11:10:26.683Z,72.21
2023-01-19T11:13:28.549Z,70.47
2023-01-19T11:16:31.246Z,69.74
2023-01-19T11:19:33.175Z,73.18
2023-01-19T11:22:34.996Z,70.94
2023-01-19T11:25:37.390Z,70.34
2023-01-19T11:28:45.039Z,71.44
2023-01-19T11:31:47.807Z,72.64
2023-01-19T11:34:50.408Z,73.20
2023-01-19T11:37:52.620Z,72.53
2023-01-19T11:40:55.397Z,72.12
2023-01-19T11:44:03.534Z,73.01
2023-01-19T11:47:06.538Z,73.39
2023-01-19T11:50:16.212Z,72.60
2023-01-19T11:53:25.376Z,74.94
2023-01-19T11:56:29.083Z,73.47
2023-01-19T11:59:33.698Z,73.14
2023-01-19T12:02:45.119Z,68.48
2023-01-19T12:05:48.492Z,72.38
2023-01-19T12:08:53.371Z,74.18
2023-01-19T12:11:57.267Z,74.24
2023-01-19T12:14:59.551Z,71.78
2023-01-19T12:18:02.223Z,71.87
2023-01-19T12:21:04.618Z,71.04
2023-01-19T12:24:12.863Z,74.18
2023-01-19T12:27:27.385Z,70.97
2023-01-19T12:30:29.506Z,72.45
2023-01-19T12:33:38.789Z,71.70
2023-01-19T12:36:41.398Z,73.46
2023-01-19T12:39:48.037Z,73.93
2023-01-19T12:42:53.964Z,71.81
2023-01-19T12:45:56.075Z,73.94
2023-01-19T12:49:21.338Z,76.73
2023-01-19T12:52:23.333Z,74.97
2023-01-19T12:55:28.176Z,75.66
2023-01-19T12:58:30.199Z,75.09
2023-01-19T13:01:37.053Z,76.80
2023-01-19T13:04:39.496Z,76.07
2023-01-19T13:08:00.386Z,75.68
2023-01-19T13:11:08.139Z,75.13
2023-01-19T13:14:29.113Z,71.65
2023-01-19T13:17:34.608Z,72.01
2023-01-19T13:20:43.807Z,71.63
2023-01-19T13:23:51.718Z,70.78
2023-01-19T13:26:55.542Z,72.14
2023-01-19T13:29:57.535Z,70.28
2023-01-19T13:33:03.743Z,72.91
2023-01-19T13:36:05.892Z,73.44
2023-01-19T13:39:11.490Z,71.77
2023-01-19T13:42:14.908Z,71.50
2023-01-19T13:45:19.140Z,73.10
2023-01-19T13:48:22.379Z,73.52
2023-01-19T13:51:24.277Z,72.96
2023-01-19T13:54:26.541Z,73.96
2023-01-19T13:57:29.575Z,74.23
2023-01-19T14:00:31.626Z,72.53
2023-01-19T14:03:33.522Z,73.12
2023-01-19T14:06:47.679Z,74.94
2023-01-19T14:10:09.464Z,75.55
2023-01-19T14:13:21.638Z,72.63
2023-01-19T14:16:27.893Z,76.02
2023-01-19T14:19:30.218Z,77.11
2023-01-19T14:22:42.288Z,77.06
2023-01-19T14:25:44.605Z,75.46
2023-01-19T14:28:47.440Z,74.85
2023-01-19T14:31:49.769Z,73.54
2023-01-19T14:34:51.987Z,73.04
2023-01-19T14:37:53.862Z,73.50
2023-01-19T14:40:55.807Z,72.54
2023-01-19T14:43:57.972Z,73.42
2023-01-19T14:47:00.127Z,73.93
2023-01-19T14:50:07.901Z,71.96
2023-01-19T14:53:21.352Z,71.88
2023-01-19T14:56:27.489Z,74.50
2023-01-19T14:59:29.471Z,73.97
2023-01-19T15:02:31.591Z,74.10
2023-01-19T15:05:33.624Z,74.89
2023-01-19T15:08:37.597Z,73.78
2023-01-19T15:11:39.491Z,71.90
2023-01-19T15:14:41.423Z,72.57
2023-01-19T15:17:43.407Z,74.16
2023-01-19T15:20:45.357Z,73.05
2023-01-19T15:23:47.745Z,72.84
2023-01-19T15:26:49.795Z,73.27
2023-01-19T15:29:51.914Z,73.64
2023-01-19T15:32:53.831Z,74.18
2023-01-19T15:35:55.751Z,73.28
2023-01-19T15:38:57.686Z,72.93
2023-01-19T15:41:59.598Z,74.17
2023-01-19T15:45:01.824Z,74.69
2023-01-19T15:48:05.212Z,77.19
2023-01-19T15:51:11.526Z,73.24
2023-01-19T15:54:16.856Z,75.12
2023-01-19T15:57:18.764Z,74.46
2023-01-19T16:00:20.703Z,74.27
2023-01-19T16:03:24.456Z,76.07
2023-01-19T16:06:26.366Z,75.32
2023-01-19T16:09:28.533Z,74.97
2023-01-19T16:12:30.504Z,73.89
2023-01-19T16:15:34.445Z,75.66
2023-01-19T16:18:36.298Z,71.38
2023-01-19T16:21:38.237Z,73.38
2023-01-19T16:24:40.207Z,73.16
2023-01-19T16:27:42.252Z,73.34
2023-01-19T16:30:44.256Z,73.17
2023-01-19T16:33:46.083Z,74.18
2023-01-19T16:36:47.965Z,73.37
2023-01-19T16:39:50.657Z,74.04
2023-01-19T16:42:52.623Z,75.23
2023-01-19T16:45:59.095Z,72.13
2023-01-19T16:49:03.874Z,73.71
2023-01-19T16:52:06.067Z,74.29
2023-01-19T16:55:09.678Z,74.09
2023-01-19T16:58:11.766Z,73.25
2023-01-19T17:01:19.899Z,71.90
2023-01-19T17:04:22.539Z,74.35
2023-01-19T17:07:24.412Z,73.60
2023-01-19T17:10:26.455Z,73.42
2023-01-19T17:13:29.623Z,74.18
2023-01-19T17:16:32.137Z,73.31
2023-01-19T17:19:34.099Z,74.40
2023-01-19T17:22:35.903Z,73.99
2023-01-19T17:25:37.766Z,75.05
2023-01-19T17:28:39.785Z,73.78
2023-01-19T17:31:41.958Z,73.54
2023-01-19T17:34:43.817Z,73.50
2023-01-19T17:37:45.730Z,74.42
2023-01-19T17:40:47.807Z,73.19
2023-01-19T17:43:53.128Z,71.23
2023-01-19T17:46:56.576Z,73.70
2023-01-19T17:49:59.409Z,73.77
2023-01-19T17:53:01.626Z,73.37
2023-01-19T17:56:07.729Z,72.16
2023-01-19T17:59:09.624Z,71.85
2023-01-19T18:02:11.665Z,73.00
2023-01-19T18:05:14.808Z,73.05
2023-01-19T18:08:16.667Z,74.77
2023-01-19T18:11:19.788Z,73.39
2023-01-19T18:14:21.667Z,73.79
2023-01-19T18:17:23.526Z,74.52
2023-01-19T18:20:25.739Z,75.78
2023-01-19T18:23:28.031Z,71.78
2023-01-19T18:26:30.335Z,73.40
2023-01-19T18:29:32.322Z,70.46
2023-01-19T18:32:34.626Z,71.30
2023-01-19T18:35:38.520Z,70.53
2023-01-19T18:38:40.660Z,69.03
2023-01-19T18:41:42.825Z,70.47
2023-01-19T18:44:44.851Z,73.54
2023-01-19T18:47:46.702Z,73.81
2023-01-19T18:50:48.520Z,74.43
2023-01-19T18:53:50.554Z,75.31
2023-01-19T18:56:52.475Z,72.67
2023-01-19T18:59:54.472Z,75.38
2023-01-19T19:02:57.704Z,73.02
2023-01-19T19:06:03.830Z,72.43
2023-01-19T19:09:05.821Z,73.43
2023-01-19T19:12:09.712Z,74.53
2023-01-19T19:15:11.827Z,75.23
2023-01-19T19:18:14.068Z,76.57
2023-01-19T19:21:16.504Z,73.86
2023-01-19T19:24:18.442Z,74.50
2023-01-19T19:27:20.339Z,74.73
2023-01-19T19:30:22.420Z,74.75
2023-01-19T19:33:24.371Z,74.25
2023-01-19T19:36:27.129Z,76.07
2023-01-19T19:39:29.155Z,75.31
2023-01-19T19:42:31.145Z,74.49
2023-01-19T19:45:33.101Z,75.94
2023-01-19T19:48:35.971Z,76.99
2023-01-19T19:51:38.627Z,77.36
2023-01-19T19:54:40.678Z,75.14
2023-01-19T19:57:42.568Z,74.61
2023-01-19T20:00:46.002Z,76.45
2023-01-19T20:03:48.018Z,76.38
2023-01-19T20:06:50.166Z,75.37
2023-01-19T20:09:53.531Z,77.60
2023-01-19T20:12:55.500Z,76.88
2023-01-19T20:15:57.397Z,74.52
2023-01-19T20:18:59.429Z,75.19
2023-01-19T20:22:01.423Z,73.54
2023-01-19T20:25:03.355Z,73.98
2023-01-19T20:28:05.418Z,75.15
2023-01-19T20:31:08.191Z,73.55
2023-01-19T20:34:11.051Z,76.23
2023-01-19T20:37:13.032Z,76.52
2023-01-19T20:40:15.292Z,77.50
2023-01-19T20:43:17.382Z,77.39
2023-01-19T20:46:19.466Z,77.28
2023-01-19T20:49:21.536Z,78.00
2023-01-19T20:52:23.667Z,75.96
2023-01-19T20:55:25.611Z,74.71
2023-01-19T20:58:27.656Z,73.60
2023-01-19T21:01:29.864Z,71.75
2023-01-19T21:04:31.839Z,76.01
2023-01-19T21:07:33.822Z,74.32
2023-01-19T21:10:35.747Z,74.41
2023-01-19T21:13:38.294Z,75.56
2023-01-19T21:16:40.201Z,74.19
2023-01-19T21:19:42.148Z,75.11
2023-01-19T21:22:44.060Z,74.79
2023-01-19T21:25:52.850Z,76.30
2023-01-19T21:28:54.735Z,76.13
2023-01-19T21:31:56.829Z,74.60
2023-01-19T21:34:58.723Z,76.34
2023-01-19T21:38:00.568Z,76.08
2023-01-19T21:41:07.032Z,77.41
2023-01-19T21:44:09.654Z,71.51
2023-01-19T21:47:11.930Z,71.60
2023-01-19T21:50:13.850Z,70.69
2023-01-19T21:53:15.701Z,68.01
2023-01-19T21:56:17.666Z,74.25
2023-01-19T21:59:20.449Z,67.15
2023-01-19T22:02:37.544Z,67.91
2023-01-19T22:05:39.937Z,69.01
2023-01-19T22:08:41.983Z,66.79
2023-01-19T22:11:43.920Z,70.33
2023-01-19T22:14:45.810Z,70.55
2023-01-19T22:17:47.627Z,70.52
2023-01-19T22:20:49.621Z,71.35
2023-01-19T22:23:52.254Z,73.76
2023-01-19T22:26:54.105Z,70.90
2023-01-19T22:29:55.995Z,68.51
2023-01-19T22:32:58.050Z,68.86
2023-01-19T22:36:10.132Z,69.72
2023-01-19T22:39:12.587Z,70.62
2023-01-19T22:42:14.464Z,68.73
2023-01-19T22:45:16.470Z,66.80
2023-01-19T22:48:18.322Z,65.69
2023-01-19T22:51:20.360Z,70.87
2023-01-19T22:54:23.200Z,70.57
2023-01-19T22:57:25.033Z,69.30
2023-01-19T23:00:26.879Z,68.27
2023-01-19T23:03:29.141Z,69.94
2023-01-19T23:06:32.307Z,68.04
2023-01-19T23:09:34.324Z,67.06
2023-01-19T23:12:36.270Z,69.49
2023-01-19T23:15:38.145Z,67.45
2023-01-19T23:18:40.472Z,68.49
2023-01-19T23:21:42.710Z,71.17
2023-01-19T23:24:44.586Z,67.88
2023-01-19T23:27:46.435Z,67.28
2023-01-19T23:30:48.616Z,68.80
2023-01-19T23:33:51.194Z,67.05
2023-01-19T23:36:53.013Z,69.91
2023-01-19T23:39:54.969Z,71.13
2023-01-19T23:42:56.998Z,70.84
2023-01-19T23:46:02.729Z,73.98
2023-01-19T23:49:04.618Z,72.28
2023-01-19T23:52:06.629Z,73.44
2023-01-19T23:55:08.852Z,73.24
2023-01-19T23:58:10.911Z,71.13
